Auchterarder, United Kingdom
Current Conditions -  °F | °C
As of 12:20 PM on Friday 24 Oct 2014 (Local Time) from EGPH Reporting Station
Scattered Clouds Scattered Clouds  
Wind Chill: 52°   Ceiling: Unl
Heat Index: 52°   Visibility: 6mi
Dew Point: 43°   Wind: 17mph
Humidity: 71%   Direction: 230°SW
Pressure: 29.74"   Gusts: NA
Location:  56.3°N, 3.71°W
Report Text: EGPH 241120Z 23015KT 9999 FEW022 SCT031 11/06 Q1007
Loading
Personal Weather Stations






























Interactive Weather Map New forecast layout! Learn more

10-Day Weather Forecast

Advertisements
Track Severe Weather on mobile